Porto, Portugal
Current Conditions -  °F | °C
As of 9:00 AM on Wednesday 22 Oct 2014 (Local Time) from LPPR Reporting Station
Clear Clear  
Wind Chill: 63°   Ceiling: Unl
Heat Index: 63°   Visibility: 6mi
Dew Point: 61°   Wind: 6mph
Humidity: 94%   Direction: 130°SE
Pressure: 30.33"   Gusts: NA
Location:  41.15°N, 8.62°W
Report Text: LPPR 220800Z 13005KT CAVOK 17/16 Q1027
Loading
Personal Weather Stations






























Interactive Weather Map
Tropical Storm Tracking
New forecast layout! Learn more

10-Day Weather Forecast

Advertisements
Track Severe Weather on mobile